Time;durP1;ratioP1;P1;durP2;ratioP2;P2;SDS_P1;SDS_P2;PMS_P1;PMS_P2;Temp;Humidity;BMP_temperature;BMP_pressure;BME280_temperature;BME280_humidity;BME280_pressure;Samples;Min_cycle;Max_cycle;Signal;HPM_P1;HPM_P2
2021/01/03 00:01:52;;;;;;;0.57;0.50;;;1.50;99.90;;;;;;5007901;28;20842;-81
2021/01/03 00:04:18;;;;;;;0.53;0.53;;;1.60;99.90;;;;;;5009602;28;20187;-81
2021/01/03 00:06:43;;;;;;;0.27;0.27;;;1.60;99.90;;;;;;5008781;28;20278;-81
2021/01/03 00:09:10;;;;;;;0.10;0.10;;;1.60;99.90;;;;;;5008968;28;20636;-81
2021/01/03 00:11:37;;;;;;;0.20;0.20;;;1.60;99.90;;;;;;5009473;28;20214;-81
2021/01/03 00:14:03;;;;;;;0.30;0.30;;;1.70;99.90;;;;;;5011215;28;20245;-81
2021/01/03 00:16:29;;;;;;;0.50;0.50;;;1.70;99.90;;;;;;5009201;28;20195;-81
2021/01/03 00:18:54;;;;;;;0.20;0.20;;;1.80;99.90;;;;;;5010326;28;20261;-81
2021/01/03 00:21:20;;;;;;;0.70;0.47;;;1.80;99.90;;;;;;5008678;28;20214;-81
2021/01/03 00:23:46;;;;;;;1.13;0.87;;;1.90;99.90;;;;;;5023991;28;20195;-80
2021/01/03 00:26:11;;;;;;;1.30;0.93;;;1.90;99.90;;;;;;5012912;28;20283;-83
2021/01/03 00:28:37;;;;;;;0.50;0.50;;;1.90;99.90;;;;;;5012758;28;20226;-81
2021/01/03 00:31:02;;;;;;;0.87;0.87;;;2.00;99.90;;;;;;5015085;28;20250;-81
2021/01/03 00:33:28;;;;;;;0.40;0.40;;;1.90;99.90;;;;;;5011864;28;20183;-80
2021/01/03 00:35:53;;;;;;;0.40;0.40;;;2.00;99.90;;;;;;5013129;28;20225;-80
2021/01/03 00:38:19;;;;;;;0.87;0.43;;;2.00;99.90;;;;;;5014095;28;20207;-81
2021/01/03 00:40:45;;;;;;;0.30;0.30;;;2.00;99.90;;;;;;5014326;28;20183;-81
2021/01/03 00:43:12;;;;;;;0.23;0.23;;;2.00;99.90;;;;;;5012888;28;20554;-81
2021/01/03 00:45:39;;;;;;;4.37;0.40;;;2.00;99.90;;;;;;5005224;28;20198;-81
2021/01/03 00:48:06;;;;;;;1.53;1.47;;;2.10;99.90;;;;;;5028102;28;20195;-81
2021/01/03 00:50:33;;;;;;;0.30;0.30;;;2.10;99.90;;;;;;5012414;28;20225;-80
2021/01/03 00:52:58;;;;;;;0.10;0.10;;;2.10;99.90;;;;;;5012232;28;20219;-82
2021/01/03 00:55:25;;;;;;;0.53;0.43;;;2.10;99.90;;;;;;5012675;28;20191;-81
2021/01/03 00:57:51;;;;;;;0.47;0.27;;;2.10;99.90;;;;;;5012687;28;20241;-81
2021/01/03 01:00:22;;;;;;;0.73;0.73;;;2.10;99.90;;;;;;5011392;28;20183;-81
2021/01/03 01:02:47;;;;;;;0.27;0.27;;;2.10;99.90;;;;;;5010870;28;20695;-80
2021/01/03 01:05:14;;;;;;;1.37;0.40;;;2.20;99.90;;;;;;5028500;28;20186;-81
2021/01/03 01:07:41;;;;;;;0.50;0.50;;;2.10;99.90;;;;;;5012674;28;20707;-81
2021/01/03 01:10:10;;;;;;;0.80;0.70;;;2.20;99.90;;;;;;5012288;28;20647;-81
2021/01/03 01:12:36;;;;;;;0.47;0.47;;;2.20;99.90;;;;;;5013695;28;20293;-81
2021/01/03 01:15:08;;;;;;;0.93;0.73;;;2.10;99.90;;;;;;5011514;28;20199;-81
2021/01/03 01:17:34;;;;;;;2.40;0.70;;;2.20;99.90;;;;;;5012333;28;20223;-81
2021/01/03 01:19:59;;;;;;;1.13;0.77;;;2.20;99.90;;;;;;5012157;28;20187;-81
2021/01/03 01:22:25;;;;;;;0.23;0.23;;;2.20;99.90;;;;;;5013081;28;20593;-81
2021/01/03 01:24:50;;;;;;;1.00;0.47;;;2.20;99.90;;;;;;5011184;28;20239;-81
2021/01/03 01:27:16;;;;;;;0.20;0.20;;;2.20;99.90;;;;;;5010945;28;20199;-83
2021/01/03 01:29:41;;;;;;;0.50;0.50;;;2.20;99.90;;;;;;5012425;28;20188;-81
2021/01/03 01:32:07;;;;;;;0.17;0.10;;;2.20;99.90;;;;;;5011624;28;20206;-81
2021/01/03 01:34:33;;;;;;;0.47;0.47;;;2.20;99.90;;;;;;5012631;28;20278;-81
2021/01/03 01:36:58;;;;;;;3.30;0.60;;;2.30;99.90;;;;;;5005008;28;20234;-82
2021/01/03 01:39:24;;;;;;;0.20;0.20;;;2.20;99.90;;;;;;5017236;28;20205;-81
2021/01/03 01:41:49;;;;;;;3.00;1.03;;;2.30;99.90;;;;;;5010250;28;20204;-84
2021/01/03 01:44:15;;;;;;;0.57;0.57;;;2.30;99.90;;;;;;5011641;28;20192;-81
2021/01/03 01:46:54;;;;;;;0.10;0.10;;;2.30;99.90;;;;;;5012653;28;20199;-81
2021/01/03 01:49:20;;;;;;;0.20;0.20;;;2.30;99.90;;;;;;5012291;28;20217;-82
2021/01/03 01:51:49;;;;;;;0.30;0.30;;;2.30;99.90;;;;;;5011197;28;20705;-81
2021/01/03 01:54:26;;;;;;;0.20;0.20;;;2.30;99.90;;;;;;5012352;28;20183;-80
2021/01/03 01:57:00;;;;;;;0.73;0.73;;;2.40;99.90;;;;;;5011930;28;20214;-81
2021/01/03 01:59:51;;;;;;;0.10;0.10;;;2.40;99.90;;;;;;5010274;28;20237;-80
2021/01/03 02:02:25;;;;;;;0.40;0.40;;;2.40;99.90;;;;;;5008438;28;20359;-81
2021/01/03 02:05:04;;;;;;;0.57;0.40;;;2.40;99.90;;;;;;5008206;28;20198;-80
2021/01/03 02:07:36;;;;;;;0.30;0.30;;;2.50;99.90;;;;;;5011241;28;20199;-82
2021/01/03 02:10:21;;;;;;;0.20;0.20;;;2.40;99.90;;;;;;5011609;28;20192;-81
2021/01/03 02:12:52;;;;;;;0.37;0.37;;;2.50;99.90;;;;;;5008005;28;20206;-83
2021/01/03 02:15:27;;;;;;;0.43;0.43;;;2.40;99.90;;;;;;5012435;28;20779;-81
2021/01/03 02:17:54;;;;;;;0.40;0.40;;;2.40;99.90;;;;;;5010976;28;20210;-81
2021/01/03 02:20:19;;;;;;;0.37;0.37;;;2.40;99.90;;;;;;5010897;28;20222;-81
2021/01/03 02:22:51;;;;;;;0.57;0.57;;;2.50;99.90;;;;;;5010350;28;20304;-80
2021/01/03 02:25:18;;;;;;;3.27;0.60;;;2.40;99.90;;;;;;5009275;28;20661;-81
2021/01/03 02:27:45;;;;;;;2.27;0.50;;;2.40;99.90;;;;;;5011267;28;20196;-81
2021/01/03 02:30:12;;;;;;;0.20;0.20;;;2.40;99.90;;;;;;5011314;28;20718;-81
2021/01/03 02:32:43;;;;;;;0.20;0.20;;;2.50;99.90;;;;;;5010040;28;20215;-82
2021/01/03 02:35:11;;;;;;;1.13;0.30;;;2.50;99.90;;;;;;5010937;28;20275;-81
2021/01/03 02:37:40;;;;;;;0.47;0.47;;;2.50;99.90;;;;;;5012116;28;20268;-81
2021/01/03 02:40:09;;;;;;;0.10;0.10;;;2.50;99.90;;;;;;5010553;28;20184;-81
2021/01/03 02:42:37;;;;;;;0.87;0.43;;;2.60;99.90;;;;;;5010676;28;20235;-81
2021/01/03 02:45:15;;;;;;;0.30;0.30;;;2.50;99.90;;;;;;5006780;28;20217;-82
2021/01/03 02:47:41;;;;;;;0.10;0.10;;;2.50;99.90;;;;;;5008381;28;20610;-81
2021/01/03 02:50:10;;;;;;;0.67;0.67;;;2.50;99.90;;;;;;5012356;28;20186;-84
2021/01/03 02:52:38;;;;;;;0.40;0.40;;;2.50;99.90;;;;;;5010223;28;20219;-81
2021/01/03 02:55:06;;;;;;;0.20;0.20;;;2.50;99.90;;;;;;5011096;28;20240;-81
2021/01/03 02:57:31;;;;;;;0.60;0.60;;;2.40;99.90;;;;;;5006680;28;20862;-81
2021/01/03 02:59:57;;;;;;;0.20;0.20;;;2.50;99.90;;;;;;5010076;28;20179;-81
2021/01/03 03:02:22;;;;;;;1.33;0.53;;;2.40;99.90;;;;;;5011907;28;20202;-83
2021/01/03 03:04:48;;;;;;;0.23;0.23;;;2.40;99.90;;;;;;5010957;28;20241;-81
2021/01/03 03:07:14;;;;;;;0.30;0.30;;;2.40;99.90;;;;;;5011443;28;20214;-81
2021/01/03 03:09:40;;;;;;;0.20;0.20;;;2.40;99.90;;;;;;5010051;28;20201;-81
2021/01/03 03:12:06;;;;;;;1.13;1.13;;;2.40;99.90;;;;;;5010625;28;20310;-81
2021/01/03 03:14:32;;;;;;;0.57;0.50;;;2.40;99.90;;;;;;5008822;28;20798;-80
2021/01/03 03:16:58;;;;;;;0.30;0.30;;;2.40;99.90;;;;;;5010479;28;20294;-81
2021/01/03 03:19:24;;;;;;;1.23;0.50;;;2.50;99.90;;;;;;5011828;28;20277;-81
2021/01/03 03:21:51;;;;;;;1.70;0.83;;;2.50;99.90;;;;;;5010393;28;20222;-82
2021/01/03 03:24:17;;;;;;;0.77;0.50;;;2.50;99.90;;;;;;5011754;28;20216;-81
2021/01/03 03:26:49;;;;;;;0.40;0.40;;;2.50;99.90;;;;;;5010325;28;20221;-81
2021/01/03 03:29:14;;;;;;;0.40;0.40;;;2.50;99.90;;;;;;5010992;28;20663;-81
2021/01/03 03:31:40;;;;;;;0.67;0.50;;;2.50;99.90;;;;;;5008974;28;20209;-81
2021/01/03 03:34:06;;;;;;;0.10;0.10;;;2.50;99.90;;;;;;5011878;28;20175;-82
2021/01/03 03:36:31;;;;;;;0.47;0.47;;;2.60;99.90;;;;;;5010657;28;20201;-84
2021/01/03 03:38:57;;;;;;;0.67;0.50;;;2.60;99.90;;;;;;5014639;28;20217;-82
2021/01/03 03:41:24;;;;;;;2.93;0.67;;;2.60;99.90;;;;;;5010480;28;20210;-82
2021/01/03 03:43:51;;;;;;;1.00;0.43;;;2.60;99.90;;;;;;5010569;28;20286;-83
2021/01/03 03:46:16;;;;;;;0.53;0.30;;;2.50;99.90;;;;;;5010669;28;20270;-80
2021/01/03 03:48:42;;;;;;;0.27;0.20;;;2.50;99.90;;;;;;5009147;28;20281;-81
2021/01/03 03:51:07;;;;;;;1.00;0.83;;;2.60;99.90;;;;;;5009916;28;20207;-81
2021/01/03 03:53:33;;;;;;;0.30;0.20;;;2.50;99.90;;;;;;5008609;28;20239;-81
2021/01/03 03:55:59;;;;;;;1.17;0.87;;;2.60;99.90;;;;;;5008166;28;20227;-81
2021/01/03 03:58:24;;;;;;;1.33;0.20;;;2.60;99.90;;;;;;5009572;28;20265;-81
2021/01/03 04:00:50;;;;;;;0.20;0.20;;;2.70;99.90;;;;;;5009165;28;20187;-81
2021/01/03 04:03:19;;;;;;;0.77;0.30;;;2.70;99.90;;;;;;5010448;28;20217;-81
2021/01/03 04:05:46;;;;;;;0.83;0.83;;;2.60;99.90;;;;;;5010041;28;20237;-81
2021/01/03 04:08:14;;;;;;;0.10;0.10;;;2.60;99.90;;;;;;5011227;28;20209;-81
2021/01/03 04:10:40;;;;;;;0.43;0.43;;;2.60;99.90;;;;;;5009568;28;20668;-81
2021/01/03 04:13:10;;;;;;;0.57;0.57;;;2.60;99.90;;;;;;5010972;28;20279;-81
2021/01/03 04:15:36;;;;;;;0.20;0.20;;;2.60;99.90;;;;;;5011174;28;20195;-80
2021/01/03 04:18:02;;;;;;;0.83;0.60;;;2.50;99.90;;;;;;5000564;28;20303;-81
2021/01/03 04:20:27;;;;;;;0.20;0.20;;;2.50;99.90;;;;;;5009394;28;20207;-81
2021/01/03 04:22:53;;;;;;;0.27;0.27;;;2.50;99.90;;;;;;5009613;28;20252;-81
2021/01/03 04:25:22;;;;;;;0.20;0.20;;;2.50;99.90;;;;;;5009500;28;20262;-81
2021/01/03 04:27:48;;;;;;;0.30;0.30;;;2.50;99.90;;;;;;5000112;28;20210;-80
2021/01/03 04:30:15;;;;;;;0.40;0.40;;;2.50;99.90;;;;;;5024674;28;20187;-81
2021/01/03 04:32:41;;;;;;;0.27;0.20;;;2.50;99.90;;;;;;5025405;28;20223;-82
2021/01/03 04:35:08;;;;;;;0.20;0.20;;;2.50;99.90;;;;;;5009904;28;20198;-81
2021/01/03 04:37:34;;;;;;;0.30;0.30;;;2.50;99.90;;;;;;5008284;28;20674;-82
2021/01/03 04:40:00;;;;;;;0.10;0.10;;;2.50;99.90;;;;;;5009418;28;20226;-81
2021/01/03 04:42:30;;;;;;;0.50;0.50;;;2.50;99.90;;;;;;5009849;28;20217;-82
2021/01/03 04:45:06;;;;;;;0.27;0.27;;;2.60;99.90;;;;;;5008073;28;20281;-80
2021/01/03 04:47:41;;;;;;;0.33;0.33;;;2.60;99.90;;;;;;5009594;28;20191;-81
2021/01/03 04:50:11;;;;;;;0.40;0.27;;;2.60;99.90;;;;;;5009622;28;20186;-81
2021/01/03 04:53:02;;;;;;;0.47;0.47;;;2.60;99.90;;;;;;5009756;28;20207;-83
2021/01/03 04:55:30;;;;;;;1.03;0.80;;;2.60;99.90;;;;;;5008906;28;20218;-81
2021/01/03 04:58:11;;;;;;;2.13;0.70;;;2.60;99.90;;;;;;5009464;28;20211;-80
2021/01/03 05:00:46;;;;;;;0.20;0.20;;;2.60;99.90;;;;;;5008578;28;20717;-81
2021/01/03 05:03:30;;;;;;;0.20;0.20;;;2.60;99.90;;;;;;5008266;28;20187;-81
2021/01/03 05:06:01;;;;;;;0.30;0.30;;;2.70;99.90;;;;;;5006573;28;20257;-81
2021/01/03 05:08:52;;;;;;;0.63;0.63;;;2.70;99.90;;;;;;5008877;28;20194;-81
2021/01/03 05:11:21;;;;;;;0.20;0.20;;;2.80;99.90;;;;;;5001255;28;20222;-84
2021/01/03 05:14:25;;;;;;;0.57;0.50;;;2.70;99.90;;;;;;5008145;28;20217;-81
2021/01/03 05:16:54;;;;;;;0.57;0.43;;;2.80;99.90;;;;;;5013861;28;20382;-81
2021/01/03 05:19:21;;;;;;;0.50;0.50;;;2.80;99.90;;;;;;5011907;28;20262;-81
2021/01/03 05:21:51;;;;;;;0.57;0.57;;;2.70;99.90;;;;;;5013938;28;20322;-81
2021/01/03 05:24:17;;;;;;;0.27;0.27;;;2.80;99.90;;;;;;5011821;28;20194;-81
2021/01/03 05:26:43;;;;;;;0.30;0.30;;;2.80;99.90;;;;;;5011768;28;20179;-81
2021/01/03 05:29:12;;;;;;;0.47;0.43;;;2.80;99.90;;;;;;5012021;28;20187;-81
2021/01/03 05:31:38;;;;;;;1.27;0.80;;;2.80;99.90;;;;;;5012684;28;20289;-80
2021/01/03 05:34:09;;;;;;;0.43;0.43;;;2.90;99.90;;;;;;5012994;28;20184;-81
2021/01/03 05:36:42;;;;;;;0.73;0.60;;;2.90;99.90;;;;;;5011722;28;20191;-81
2021/01/03 05:39:18;;;;;;;0.30;0.30;;;2.80;99.90;;;;;;5015004;28;20191;-80
2021/01/03 05:41:43;;;;;;;0.30;0.30;;;2.80;99.90;;;;;;5013888;28;20228;-81
2021/01/03 05:44:25;;;;;;;0.57;0.40;;;2.90;99.90;;;;;;5007387;28;20567;-82
2021/01/03 05:47:00;;;;;;;0.30;0.30;;;3.10;99.90;;;;;;5003125;28;20337;-82
2021/01/03 05:49:27;;;;;;;0.97;0.60;;;3.10;99.90;;;;;;5027857;28;20182;-81
2021/01/03 05:52:20;;;;;;;0.20;0.20;;;3.20;99.90;;;;;;5011006;28;20299;-82
2021/01/03 05:54:48;;;;;;;0.20;0.20;;;3.10;99.90;;;;;;5012561;28;20664;-82
2021/01/03 05:57:29;;;;;;;0.27;0.13;;;3.00;99.90;;;;;;5012960;28;20823;-82
2021/01/03 05:59:55;;;;;;;0.13;0.13;;;3.00;99.90;;;;;;5008344;28;20193;-82
2021/01/03 06:02:21;;;;;;;0.43;0.43;;;2.90;99.90;;;;;;5013691;28;20341;-82
2021/01/03 06:05:00;;;;;;;1.20;0.70;;;2.90;99.90;;;;;;5011587;28;20181;-81
2021/01/03 06:07:29;;;;;;;0.53;0.53;;;2.90;99.90;;;;;;5012046;28;20262;-82
2021/01/03 06:09:54;;;;;;;0.57;0.57;;;2.90;99.90;;;;;;5013533;28;20667;-82
2021/01/03 06:12:22;;;;;;;0.40;0.40;;;2.90;99.90;;;;;;5008758;28;20257;-80
2021/01/03 06:14:53;;;;;;;0.20;0.20;;;2.90;99.90;;;;;;5012692;28;20192;-81
2021/01/03 06:17:44;;;;;;;0.60;0.20;;;2.80;99.90;;;;;;5012383;28;20215;-83
2021/01/03 06:20:24;;;;;;;0.20;0.17;;;2.80;99.90;;;;;;5011224;28;20555;-81
2021/01/03 06:22:51;;;;;;;1.43;0.33;;;2.80;99.90;;;;;;5011090;28;20842;-81
2021/01/03 06:25:29;;;;;;;0.60;0.60;;;2.90;99.90;;;;;;5012457;28;20656;-81
2021/01/03 06:28:04;;;;;;;0.27;0.27;;;2.80;99.90;;;;;;5010864;28;20183;-80
2021/01/03 06:30:33;;;;;;;0.20;0.20;;;2.80;99.90;;;;;;5010707;28;20195;-80
2021/01/03 06:33:26;;;;;;;0.87;0.50;;;2.80;99.90;;;;;;5010163;28;20257;-80
2021/01/03 06:36:04;;;;;;;0.27;0.27;;;2.80;99.90;;;;;;5009742;28;20278;-80
2021/01/03 06:38:48;;;;;;;0.67;0.43;;;2.70;99.90;;;;;;5011149;28;20214;-80
2021/01/03 06:41:41;;;;;;;0.10;0.10;;;2.70;99.90;;;;;;5009968;28;20216;-80
2021/01/03 06:44:37;;;;;;;0.40;0.40;;;2.70;99.90;;;;;;5011314;28;20191;-79
2021/01/03 06:47:03;;;;;;;0.30;0.30;;;2.60;99.90;;;;;;5005414;28;20303;-80
2021/01/03 06:49:59;;;;;;;1.60;0.57;;;2.60;99.90;;;;;;5006793;28;20812;-80
2021/01/03 06:53:03;;;;;;;0.40;0.30;;;2.60;99.90;;;;;;5004563;28;20589;-79
2021/01/03 06:56:06;;;;;;;1.17;0.95;;;2.50;99.90;;;;;;4984966;28;20474;-83
2021/01/03 06:59:00;;;;;;;0.40;0.40;;;2.60;99.90;;;;;;5027087;28;20803;-82
2021/01/03 07:01:32;;;;;;;0.33;0.27;;;2.50;99.90;;;;;;5013188;28;20286;-83
2021/01/03 07:04:00;;;;;;;0.50;0.50;;;2.50;99.90;;;;;;5023598;28;20183;-82
2021/01/03 07:06:36;;;;;;;0.10;0.10;;;2.50;99.90;;;;;;5009052;28;20180;-81
2021/01/03 07:09:08;;;;;;;0.27;0.27;;;2.50;99.90;;;;;;5009941;28;20186;-81
2021/01/03 07:11:52;;;;;;;1.23;1.13;;;2.40;99.90;;;;;;5007339;28;20273;-82
2021/01/03 07:14:24;;;;;;;0.23;0.23;;;2.50;99.90;;;;;;5009144;28;20298;-81
2021/01/03 07:17:15;;;;;;;1.00;0.97;;;2.50;99.90;;;;;;5007287;28;20247;-80
2021/01/03 07:19:57;;;;;;;0.10;0.10;;;2.50;99.90;;;;;;5007524;28;20237;-81
2021/01/03 07:22:30;;;;;;;0.10;0.10;;;2.50;99.90;;;;;;5009094;28;20218;-82
2021/01/03 07:24:55;;;;;;;0.83;0.50;;;2.50;99.90;;;;;;5004752;28;20185;-81
2021/01/03 07:27:34;;;;;;;0.60;0.60;;;2.50;99.90;;;;;;5006380;28;20191;-81
2021/01/03 07:30:02;;;;;;;1.03;0.50;;;2.50;99.90;;;;;;5006443;28;20656;-81
2021/01/03 07:32:37;;;;;;;2.40;0.80;;;2.50;99.90;;;;;;5001643;28;20235;-84
2021/01/03 07:35:22;;;;;;;0.60;0.60;;;2.60;99.90;;;;;;5007781;28;20199;-81
2021/01/03 07:38:25;;;;;;;0.30;0.30;;;2.60;99.90;;;;;;5001544;28;20361;-82
2021/01/03 07:41:04;;;;;;;0.30;0.30;;;2.60;99.90;;;;;;5007478;28;20686;-81
2021/01/03 07:43:50;;;;;;;0.30;0.30;;;2.50;99.90;;;;;;5006960;28;20179;-82
2021/01/03 07:46:44;;;;;;;0.70;0.70;;;2.50;99.90;;;;;;5007117;28;20274;-81
2021/01/03 07:49:47;;;;;;;0.47;0.47;;;2.50;99.90;;;;;;5004997;28;20685;-80
2021/01/03 07:52:19;;;;;;;0.57;0.57;;;2.50;99.90;;;;;;4988007;28;20215;-80
2021/01/03 07:54:49;;;;;;;0.40;0.40;;;2.60;99.90;;;;;;5009557;28;20187;-82
2021/01/03 07:57:16;;;;;;;0.57;0.57;;;2.60;99.90;;;;;;5002981;28;20227;-82
2021/01/03 07:59:41;;;;;;;2.03;0.93;;;2.60;99.90;;;;;;5004667;28;20188;-81
2021/01/03 08:02:08;;;;;;;0.30;0.30;;;2.50;99.90;;;;;;5009968;28;20583;-81
2021/01/03 08:04:33;;;;;;;0.37;0.20;;;2.60;99.90;;;;;;5007308;28;20194;-81
2021/01/03 08:07:07;;;;;;;4.13;1.77;;;2.60;99.90;;;;;;5009794;28;20187;-83
2021/01/03 08:09:33;;;;;;;1.03;1.03;;;2.70;99.90;;;;;;5021495;28;20191;-81
2021/01/03 08:12:17;;;;;;;0.20;0.20;;;2.60;99.90;;;;;;5009214;28;20206;-81
2021/01/03 08:14:45;;;;;;;0.20;0.20;;;2.70;99.90;;;;;;5004503;28;20195;-82
2021/01/03 08:17:24;;;;;;;1.37;1.27;;;2.70;99.90;;;;;;5010824;28;20269;-81
2021/01/03 08:19:50;;;;;;;0.63;0.63;;;2.70;99.90;;;;;;5006710;28;20191;-81
2021/01/03 08:22:27;;;;;;;0.23;0.23;;;2.70;99.90;;;;;;5006644;28;20817;-81
2021/01/03 08:24:55;;;;;;;0.70;0.70;;;2.80;99.90;;;;;;5008567;28;20191;-82
2021/01/03 08:27:26;;;;;;;0.43;0.40;;;2.80;99.90;;;;;;5006892;28;20187;-82
2021/01/03 08:29:59;;;;;;;0.23;0.23;;;2.80;99.90;;;;;;5007760;28;20201;-82
2021/01/03 08:32:30;;;;;;;0.30;0.30;;;2.80;99.90;;;;;;5010017;28;20200;-81
2021/01/03 08:35:04;;;;;;;0.30;0.30;;;2.90;99.90;;;;;;5010779;28;20189;-81
2021/01/03 08:37:50;;;;;;;0.30;0.30;;;2.90;99.90;;;;;;5010043;28;20210;-81
2021/01/03 08:40:34;;;;;;;0.30;0.30;;;2.90;99.90;;;;;;5004674;28;20188;-81
2021/01/03 08:43:09;;;;;;;0.40;0.27;;;2.80;99.90;;;;;;5006906;28;20213;-79
2021/01/03 08:45:41;;;;;;;1.37;0.40;;;2.80;99.90;;;;;;5007526;28;20813;-80
2021/01/03 08:48:11;;;;;;;0.60;0.60;;;3.00;99.90;;;;;;5011773;28;20286;-79
2021/01/03 08:50:39;;;;;;;0.60;0.50;;;3.00;99.90;;;;;;5011812;28;20197;-83
2021/01/03 08:53:19;;;;;;;0.30;0.30;;;2.90;99.90;;;;;;5014237;28;20211;-81
2021/01/03 08:55:45;;;;;;;1.23;0.30;;;2.90;99.90;;;;;;5021766;28;20647;-81
2021/01/03 08:58:15;;;;;;;0.63;0.63;;;3.00;99.90;;;;;;5010997;28;20245;-83
2021/01/03 09:00:45;;;;;;;0.90;0.37;;;3.00;99.90;;;;;;5014330;28;20193;-81
2021/01/03 09:03:21;;;;;;;0.10;0.10;;;3.10;99.90;;;;;;5015226;28;20868;-81
2021/01/03 09:05:49;;;;;;;0.40;0.40;;;3.10;99.90;;;;;;5013586;28;20221;-81
2021/01/03 09:08:29;;;;;;;0.43;0.40;;;3.10;99.90;;;;;;5014242;28;20195;-81
2021/01/03 09:11:02;;;;;;;0.50;0.50;;;3.00;99.90;;;;;;5014298;28;20222;-81
2021/01/03 09:13:28;;;;;;;1.17;0.83;;;3.10;99.90;;;;;;5013898;28;20222;-81
2021/01/03 09:16:06;;;;;;;0.40;0.40;;;3.10;99.90;;;;;;5014516;28;20214;-81
2021/01/03 09:18:50;;;;;;;0.33;0.30;;;3.20;99.90;;;;;;5013425;28;20265;-81
2021/01/03 09:21:16;;;;;;;1.13;0.40;;;3.10;99.90;;;;;;5014639;28;20218;-81
2021/01/03 09:23:42;;;;;;;0.13;0.13;;;3.30;99.90;;;;;;5013472;28;20249;-81
2021/01/03 09:26:09;;;;;;;0.37;0.37;;;3.20;99.90;;;;;;5012332;28;20190;-82
2021/01/03 09:28:40;;;;;;;0.67;0.67;;;3.30;99.90;;;;;;5013018;28;20223;-82
2021/01/03 09:31:12;;;;;;;0.50;0.50;;;3.40;99.90;;;;;;5012959;28;20758;-80
2021/01/03 09:33:39;;;;;;;1.93;1.57;;;3.30;99.90;;;;;;5014251;28;20241;-81
2021/01/03 09:36:23;;;;;;;0.43;0.40;;;3.30;99.90;;;;;;5013432;28;20201;-83
2021/01/03 09:38:57;;;;;;;0.47;0.47;;;3.30;99.90;;;;;;5018758;28;20622;-83
2021/01/03 09:41:39;;;;;;;0.40;0.40;;;3.30;99.90;;;;;;5012952;28;20241;-84
2021/01/03 09:44:23;;;;;;;0.90;0.60;;;3.30;99.90;;;;;;5010928;28;20188;-82
2021/01/03 09:47:02;;;;;;;1.17;0.90;;;3.40;99.90;;;;;;5007827;28;20192;-82
2021/01/03 09:49:37;;;;;;;1.50;0.50;;;3.40;99.90;;;;;;5006721;28;20195;-82
2021/01/03 09:52:32;;;;;;;0.43;0.43;;;3.30;99.90;;;;;;5012200;28;20683;-82
2021/01/03 09:55:11;;;;;;;0.33;0.33;;;3.40;99.90;;;;;;5028160;28;20187;-82
2021/01/03 09:58:02;;;;;;;0.30;0.30;;;3.40;99.90;;;;;;5004163;28;20218;-83
2021/01/03 10:00:43;;;;;;;1.07;0.90;;;3.40;99.90;;;;;;5010571;28;20188;-83
2021/01/03 10:03:23;;;;;;;0.47;0.47;;;3.50;99.90;;;;;;5010749;28;20218;-83
2021/01/03 10:05:50;;;;;;;1.13;0.53;;;3.50;99.90;;;;;;5012462;28;20658;-83
2021/01/03 10:08:25;;;;;;;1.07;1.00;;;3.50;99.90;;;;;;5014766;28;20277;-84
2021/01/03 10:10:59;;;;;;;0.50;0.50;;;3.50;99.90;;;;;;5013525;28;20190;-83
2021/01/03 10:13:27;;;;;;;0.87;0.77;;;3.50;99.90;;;;;;5009430;28;20214;-83
2021/01/03 10:15:54;;;;;;;0.63;0.63;;;3.60;99.90;;;;;;5010690;28;20188;-83
2021/01/03 10:18:35;;;;;;;0.33;0.33;;;3.60;99.90;;;;;;5012515;28;20233;-83
2021/01/03 10:21:31;;;;;;;0.53;0.53;;;3.50;99.90;;;;;;5011629;28;20188;-83
2021/01/03 10:24:11;;;;;;;0.20;0.20;;;3.50;99.90;;;;;;5011475;28;20192;-84
2021/01/03 10:26:37;;;;;;;0.43;0.43;;;3.60;99.90;;;;;;5008426;28;20195;-83
2021/01/03 10:29:04;;;;;;;0.10;0.10;;;3.70;99.90;;;;;;5012547;28;20187;-81
2021/01/03 10:31:57;;;;;;;0.33;0.33;;;3.60;99.90;;;;;;5012497;28;20228;-83
2021/01/03 10:34:23;;;;;;;0.73;0.73;;;3.60;99.90;;;;;;5009763;28;20663;-82
2021/01/03 10:36:51;;;;;;;0.20;0.20;;;3.60;99.90;;;;;;5012910;28;20198;-81
2021/01/03 10:39:17;;;;;;;0.53;0.53;;;3.60;99.90;;;;;;5014619;28;20191;-82
2021/01/03 10:41:43;;;;;;;0.30;0.30;;;3.60;99.90;;;;;;5007722;28;20724;-82
2021/01/03 10:44:10;;;;;;;0.40;0.40;;;3.60;99.90;;;;;;5011026;28;20703;-83
2021/01/03 10:46:37;;;;;;;0.43;0.43;;;3.70;99.90;;;;;;5001624;28;20180;-82
2021/01/03 10:49:03;;;;;;;0.30;0.30;;;3.70;99.90;;;;;;5008505;28;20188;-82
2021/01/03 10:51:31;;;;;;;0.27;0.27;;;3.60;99.90;;;;;;5009362;28;20703;-82
2021/01/03 10:53:57;;;;;;;0.13;0.13;;;3.70;99.90;;;;;;5007073;28;20192;-83
2021/01/03 10:56:23;;;;;;;0.30;0.30;;;3.70;99.90;;;;;;5010474;28;20191;-83
2021/01/03 10:58:49;;;;;;;0.30;0.30;;;3.70;99.90;;;;;;5011113;28;20214;-82
2021/01/03 11:01:14;;;;;;;0.17;0.17;;;3.70;99.90;;;;;;5010372;28;20682;-83
2021/01/03 11:03:41;;;;;;;0.30;0.30;;;3.70;99.90;;;;;;5012274;28;20226;-83
2021/01/03 11:06:06;;;;;;;0.20;0.20;;;3.70;99.90;;;;;;5010030;28;20207;-83
2021/01/03 11:08:32;;;;;;;0.20;0.20;;;3.70;99.90;;;;;;5010879;28;20223;-83
2021/01/03 11:10:57;;;;;;;0.63;0.63;;;3.80;99.90;;;;;;5011429;28;20604;-84
2021/01/03 11:13:23;;;;;;;0.30;0.30;;;3.70;99.90;;;;;;5010178;28;20250;-83
2021/01/03 11:15:49;;;;;;;0.93;0.50;;;3.80;99.90;;;;;;5012038;28;20540;-83
2021/01/03 11:18:14;;;;;;;0.50;0.50;;;3.70;99.90;;;;;;5012778;28;20285;-83
2021/01/03 11:20:40;;;;;;;0.47;0.47;;;3.70;99.90;;;;;;5009227;28;20179;-84
2021/01/03 11:23:06;;;;;;;0.10;0.10;;;3.80;99.90;;;;;;5007905;28;20202;-84
2021/01/03 11:25:31;;;;;;;0.23;0.23;;;3.70;99.90;;;;;;5006489;28;20187;-83
2021/01/03 11:27:57;;;;;;;0.57;0.57;;;3.80;99.90;;;;;;5011453;28;20184;-84
2021/01/03 11:30:23;;;;;;;0.43;0.43;;;3.80;99.90;;;;;;5007894;28;20207;-83
2021/01/03 11:32:48;;;;;;;0.23;0.23;;;3.80;99.90;;;;;;5004398;28;20208;-84
2021/01/03 11:35:17;;;;;;;0.30;0.30;;;3.90;99.90;;;;;;5010410;28;20211;-82
2021/01/03 11:37:43;;;;;;;0.23;0.23;;;3.70;99.90;;;;;;5008560;28;20207;-83
2021/01/03 11:40:09;;;;;;;0.30;0.30;;;3.70;99.90;;;;;;5011639;28;20295;-83
2021/01/03 11:42:38;;;;;;;0.40;0.40;;;3.70;99.90;;;;;;5010044;28;20222;-83
2021/01/03 11:45:08;;;;;;;0.20;0.20;;;3.70;99.90;;;;;;5011848;28;20185;-83
2021/01/03 11:47:33;;;;;;;1.20;0.70;;;3.70;99.90;;;;;;5010722;28;20188;-83
2021/01/03 11:49:59;;;;;;;0.10;0.10;;;3.50;99.90;;;;;;5010370;28;20190;-84
2021/01/03 11:52:26;;;;;;;0.40;0.40;;;3.50;99.90;;;;;;5007198;28;20219;-83
2021/01/03 11:54:52;;;;;;;0.20;0.20;;;3.50;99.90;;;;;;5003775;28;20201;-83
2021/01/03 11:57:18;;;;;;;0.33;0.33;;;3.50;99.90;;;;;;5010000;28;20211;-83
2021/01/03 11:59:43;;;;;;;0.63;0.50;;;3.60;99.90;;;;;;5008382;28;20618;-83
2021/01/03 12:02:10;;;;;;;0.17;0.17;;;3.70;99.90;;;;;;5009316;28;20246;-83
2021/01/03 12:04:37;;;;;;;0.30;0.30;;;3.40;99.90;;;;;;5010047;28;20566;-84
2021/01/03 12:07:05;;;;;;;0.60;0.60;;;3.30;99.90;;;;;;5007209;28;20210;-82
2021/01/03 12:09:31;;;;;;;0.30;0.30;;;3.40;99.90;;;;;;5011210;28;20187;-83
2021/01/03 12:11:59;;;;;;;0.10;0.10;;;3.40;99.90;;;;;;5006797;28;20210;-83
2021/01/03 12:14:25;;;;;;;0.53;0.33;;;3.50;99.90;;;;;;5006329;28;20325;-82
2021/01/03 12:16:56;;;;;;;1.70;0.43;;;3.40;99.90;;;;;;5009868;28;20257;-82
2021/01/03 12:19:22;;;;;;;0.37;0.37;;;3.50;99.90;;;;;;5003938;28;20180;-83
2021/01/03 12:21:48;;;;;;;0.73;0.63;;;3.50;99.90;;;;;;5014284;28;20210;-83
2021/01/03 12:24:14;;;;;;;0.90;0.90;;;3.50;99.90;;;;;;5016410;28;20678;-82
2021/01/03 12:26:41;;;;;;;0.40;0.40;;;3.60;99.90;;;;;;5014957;28;20674;-82
2021/01/03 12:29:08;;;;;;;0.20;0.20;;;3.60;99.90;;;;;;5016066;28;20183;-83
2021/01/03 12:31:39;;;;;;;0.10;0.10;;;3.70;99.90;;;;;;5016456;28;20628;-83
2021/01/03 12:34:06;;;;;;;0.63;0.27;;;3.80;99.90;;;;;;5011439;28;20237;-82
2021/01/03 12:36:32;;;;;;;0.50;0.50;;;3.70;99.90;;;;;;5010729;28;20253;-82
2021/01/03 12:38:58;;;;;;;0.10;0.10;;;3.60;99.90;;;;;;5018185;28;20232;-82
2021/01/03 12:41:24;;;;;;;0.47;0.47;;;3.60;99.90;;;;;;5015030;28;20227;-82
2021/01/03 12:43:50;;;;;;;0.87;0.40;;;3.60;99.90;;;;;;5015953;28;20176;-82
2021/01/03 12:46:28;;;;;;;0.40;0.40;;;3.60;99.90;;;;;;5015537;28;20262;-83
2021/01/03 12:48:53;;;;;;;0.27;0.27;;;3.60;99.90;;;;;;5016507;28;20191;-83
2021/01/03 12:51:19;;;;;;;0.70;0.53;;;3.60;99.90;;;;;;5015575;28;20628;-82
2021/01/03 12:53:45;;;;;;;0.20;0.20;;;3.50;99.90;;;;;;5015431;28;20241;-82
2021/01/03 12:56:10;;;;;;;0.50;0.50;;;3.50;99.90;;;;;;5014656;28;20183;-82
2021/01/03 12:58:36;;;;;;;0.40;0.37;;;3.40;99.90;;;;;;5014828;28;20210;-83
2021/01/03 13:01:02;;;;;;;0.30;0.30;;;3.40;99.90;;;;;;5015751;28;20203;-82
2021/01/03 13:03:29;;;;;;;0.23;0.23;;;3.40;99.90;;;;;;5015621;28;20546;-83
2021/01/03 13:05:55;;;;;;;0.17;0.17;;;3.50;99.90;;;;;;5017309;28;20183;-84
2021/01/03 13:08:20;;;;;;;0.10;0.10;;;3.50;99.90;;;;;;5015749;28;20237;-81
2021/01/03 13:10:46;;;;;;;0.30;0.20;;;3.50;99.90;;;;;;5015691;28;20289;-82
2021/01/03 13:13:12;;;;;;;0.27;0.27;;;3.60;99.90;;;;;;5015130;28;20180;-82
2021/01/03 13:15:38;;;;;;;0.10;0.10;;;3.50;99.90;;;;;;5016702;28;20183;-83
2021/01/03 13:18:03;;;;;;;0.80;0.80;;;3.30;99.90;;;;;;5015690;28;20215;-82